sensor_id;sensor_type;location;lat;lon;timestamp;temperature;humidity
64396;DHT22;50717;53.360;6.290;2023-04-07T00:00:06;8.30;99.90
64396;DHT22;50717;53.360;6.290;2023-04-07T00:02:32;7.20;99.90
64396;DHT22;50717;53.360;6.290;2023-04-07T00:04:58;7.50;99.90
64396;DHT22;50717;53.360;6.290;2023-04-07T00:07:23;7.30;99.90
64396;DHT22;50717;53.360;6.290;2023-04-07T00:09:49;7.30;99.90
64396;DHT22;50717;53.360;6.290;2023-04-07T00:12:15;7.40;99.90
64396;DHT22;50717;53.360;6.290;2023-04-07T00:14:41;7.60;99.90
64396;DHT22;50717;53.360;6.290;2023-04-07T00:17:07;7.20;99.90
64396;DHT22;50717;53.360;6.290;2023-04-07T00:19:33;7.20;99.90
64396;DHT22;50717;53.360;6.290;2023-04-07T00:21:58;7.00;99.90
64396;DHT22;50717;53.360;6.290;2023-04-07T00:24:24;6.80;99.90
64396;DHT22;50717;53.360;6.290;2023-04-07T00:26:50;7.70;99.90
64396;DHT22;50717;53.360;6.290;2023-04-07T00:29:15;7.30;99.90
64396;DHT22;50717;53.360;6.290;2023-04-07T00:31:41;7.00;99.90
64396;DHT22;50717;53.360;6.290;2023-04-07T00:34:07;6.90;99.90
64396;DHT22;50717;53.360;6.290;2023-04-07T00:36:32;7.30;99.90
64396;DHT22;50717;53.360;6.290;2023-04-07T00:39:01;7.30;99.90
64396;DHT22;50717;53.360;6.290;2023-04-07T00:41:26;6.70;99.90
64396;DHT22;50717;53.360;6.290;2023-04-07T00:43:52;7.50;99.90
64396;DHT22;50717;53.360;6.290;2023-04-07T00:46:21;7.10;99.90
64396;DHT22;50717;53.360;6.290;2023-04-07T00:48:47;6.80;99.90
64396;DHT22;50717;53.360;6.290;2023-04-07T00:51:13;7.80;99.90
64396;DHT22;50717;53.360;6.290;2023-04-07T00:53:40;7.30;99.90
64396;DHT22;50717;53.360;6.290;2023-04-07T00:56:06;6.90;99.90
64396;DHT22;50717;53.360;6.290;2023-04-07T00:58:32;7.20;99.90
64396;DHT22;50717;53.360;6.290;2023-04-07T01:01:07;7.10;99.90
64396;DHT22;50717;53.360;6.290;2023-04-07T01:03:43;7.30;99.90
64396;DHT22;50717;53.360;6.290;2023-04-07T01:06:14;7.30;99.90
64396;DHT22;50717;53.360;6.290;2023-04-07T01:09:04;7.10;99.90
64396;DHT22;50717;53.360;6.290;2023-04-07T01:11:41;7.60;99.90
64396;DHT22;50717;53.360;6.290;2023-04-07T01:14:10;7.10;99.90
64396;DHT22;50717;53.360;6.290;2023-04-07T01:16:42;7.10;99.90
64396;DHT22;50717;53.360;6.290;2023-04-07T01:21:49;6.60;99.90
64396;DHT22;50717;53.360;6.290;2023-04-07T01:27:54;7.60;99.90
64396;DHT22;50717;53.360;6.290;2023-04-07T01:30:27;7.00;99.90
64396;DHT22;50717;53.360;6.290;2023-04-07T01:32:54;7.40;99.90
64396;DHT22;50717;53.360;6.290;2023-04-07T01:35:21;7.40;99.90
64396;DHT22;50717;53.360;6.290;2023-04-07T01:37:48;7.70;99.90
64396;DHT22;50717;53.360;6.290;2023-04-07T01:40:15;6.70;99.90
64396;DHT22;50717;53.360;6.290;2023-04-07T01:42:42;7.10;99.90
64396;DHT22;50717;53.360;6.290;2023-04-07T01:45:09;8.00;99.90
64396;DHT22;50717;53.360;6.290;2023-04-07T01:47:36;7.00;99.90
64396;DHT22;50717;53.360;6.290;2023-04-07T01:50:03;8.30;99.90
64396;DHT22;50717;53.360;6.290;2023-04-07T01:52:31;6.90;99.90
64396;DHT22;50717;53.360;6.290;2023-04-07T01:54:56;7.20;99.90
64396;DHT22;50717;53.360;6.290;2023-04-07T01:57:22;7.70;99.90
64396;DHT22;50717;53.360;6.290;2023-04-07T01:59:48;7.10;99.90
64396;DHT22;50717;53.360;6.290;2023-04-07T02:02:13;7.00;99.90
64396;DHT22;50717;53.360;6.290;2023-04-07T02:04:48;7.20;99.90
64396;DHT22;50717;53.360;6.290;2023-04-07T02:08:04;7.10;99.90
64396;DHT22;50717;53.360;6.290;2023-04-07T02:10:12;7.20;99.90
64396;DHT22;50717;53.360;6.290;2023-04-07T02:12:40;7.10;99.90
64396;DHT22;50717;53.360;6.290;2023-04-07T02:15:09;7.50;99.90
64396;DHT22;50717;53.360;6.290;2023-04-07T02:17:39;7.50;99.90
64396;DHT22;50717;53.360;6.290;2023-04-07T02:20:09;6.90;99.90
64396;DHT22;50717;53.360;6.290;2023-04-07T02:22:39;6.90;99.90
64396;DHT22;50717;53.360;6.290;2023-04-07T02:25:23;7.50;99.90
64396;DHT22;50717;53.360;6.290;2023-04-07T02:27:49;8.10;99.90
64396;DHT22;50717;53.360;6.290;2023-04-07T02:30:14;6.80;99.90
64396;DHT22;50717;53.360;6.290;2023-04-07T02:32:40;7.40;99.90
64396;DHT22;50717;53.360;6.290;2023-04-07T02:35:06;7.50;99.90
64396;DHT22;50717;53.360;6.290;2023-04-07T02:37:32;7.40;99.90
64396;DHT22;50717;53.360;6.290;2023-04-07T02:39:57;7.50;99.90
64396;DHT22;50717;53.360;6.290;2023-04-07T02:42:23;7.40;99.90
64396;DHT22;50717;53.360;6.290;2023-04-07T02:44:49;7.00;99.90
64396;DHT22;50717;53.360;6.290;2023-04-07T02:47:15;7.30;99.90
64396;DHT22;50717;53.360;6.290;2023-04-07T02:49:41;7.30;99.90
64396;DHT22;50717;53.360;6.290;2023-04-07T02:52:07;7.00;99.90
64396;DHT22;50717;53.360;6.290;2023-04-07T02:54:32;7.10;99.90
64396;DHT22;50717;53.360;6.290;2023-04-07T02:56:58;7.40;99.90
64396;DHT22;50717;53.360;6.290;2023-04-07T02:59:23;7.00;99.90
64396;DHT22;50717;53.360;6.290;2023-04-07T03:01:49;7.00;99.90
64396;DHT22;50717;53.360;6.290;2023-04-07T03:04:15;7.70;99.90
64396;DHT22;50717;53.360;6.290;2023-04-07T03:06:41;7.50;99.90
64396;DHT22;50717;53.360;6.290;2023-04-07T03:09:06;7.10;99.90
64396;DHT22;50717;53.360;6.290;2023-04-07T03:11:32;7.30;99.90
64396;DHT22;50717;53.360;6.290;2023-04-07T03:13:58;6.70;99.90
64396;DHT22;50717;53.360;6.290;2023-04-07T03:16:23;7.20;99.90
64396;DHT22;50717;53.360;6.290;2023-04-07T03:18:49;6.90;99.90
64396;DHT22;50717;53.360;6.290;2023-04-07T03:21:15;7.40;99.90
64396;DHT22;50717;53.360;6.290;2023-04-07T03:23:40;7.10;99.90
64396;DHT22;50717;53.360;6.290;2023-04-07T03:26:06;7.00;99.90
64396;DHT22;50717;53.360;6.290;2023-04-07T03:28:32;7.50;99.90
64396;DHT22;50717;53.360;6.290;2023-04-07T03:30:57;8.00;99.90
64396;DHT22;50717;53.360;6.290;2023-04-07T03:33:23;7.60;99.90
64396;DHT22;50717;53.360;6.290;2023-04-07T03:35:49;7.60;99.90
64396;DHT22;50717;53.360;6.290;2023-04-07T03:38:14;7.60;99.90
64396;DHT22;50717;53.360;6.290;2023-04-07T03:40:40;8.00;99.90
64396;DHT22;50717;53.360;6.290;2023-04-07T03:43:06;7.30;99.90
64396;DHT22;50717;53.360;6.290;2023-04-07T03:45:37;7.50;99.90
64396;DHT22;50717;53.360;6.290;2023-04-07T03:48:03;7.50;99.90
64396;DHT22;50717;53.360;6.290;2023-04-07T03:50:28;7.40;99.90
64396;DHT22;50717;53.360;6.290;2023-04-07T03:52:54;7.00;99.90
64396;DHT22;50717;53.360;6.290;2023-04-07T03:55:21;6.90;99.90
64396;DHT22;50717;53.360;6.290;2023-04-07T03:57:46;8.10;99.90
64396;DHT22;50717;53.360;6.290;2023-04-07T04:00:12;6.80;99.90
64396;DHT22;50717;53.360;6.290;2023-04-07T04:02:38;7.00;99.90
64396;DHT22;50717;53.360;6.290;2023-04-07T04:05:04;7.40;99.90
64396;DHT22;50717;53.360;6.290;2023-04-07T04:07:30;7.40;99.90
64396;DHT22;50717;53.360;6.290;2023-04-07T04:09:57;7.40;99.90
64396;DHT22;50717;53.360;6.290;2023-04-07T04:12:22;7.70;99.90
64396;DHT22;50717;53.360;6.290;2023-04-07T04:14:48;7.40;99.90
64396;DHT22;50717;53.360;6.290;2023-04-07T04:17:13;7.60;99.90
64396;DHT22;50717;53.360;6.290;2023-04-07T04:19:39;8.00;99.90
64396;DHT22;50717;53.360;6.290;2023-04-07T04:22:05;7.30;99.90
64396;DHT22;50717;53.360;6.290;2023-04-07T04:24:31;7.30;99.90
64396;DHT22;50717;53.360;6.290;2023-04-07T04:26:57;7.40;99.90
64396;DHT22;50717;53.360;6.290;2023-04-07T04:29:23;7.70;99.90
64396;DHT22;50717;53.360;6.290;2023-04-07T04:31:48;7.20;99.90
64396;DHT22;50717;53.360;6.290;2023-04-07T04:34:14;7.70;99.90
64396;DHT22;50717;53.360;6.290;2023-04-07T04:36:40;7.80;99.90
64396;DHT22;50717;53.360;6.290;2023-04-07T04:39:06;7.60;99.90
64396;DHT22;50717;53.360;6.290;2023-04-07T04:41:31;8.00;99.90
64396;DHT22;50717;53.360;6.290;2023-04-07T04:43:57;7.40;99.90
64396;DHT22;50717;53.360;6.290;2023-04-07T04:46:23;7.10;99.90
64396;DHT22;50717;53.360;6.290;2023-04-07T04:48:49;6.70;99.90
64396;DHT22;50717;53.360;6.290;2023-04-07T04:51:16;6.70;99.90
64396;DHT22;50717;53.360;6.290;2023-04-07T04:53:41;7.50;99.90
64396;DHT22;50717;53.360;6.290;2023-04-07T04:56:07;7.30;99.90
64396;DHT22;50717;53.360;6.290;2023-04-07T04:58:34;7.30;99.90
64396;DHT22;50717;53.360;6.290;2023-04-07T05:01:00;7.40;99.90
64396;DHT22;50717;53.360;6.290;2023-04-07T05:03:27;6.70;99.90
64396;DHT22;50717;53.360;6.290;2023-04-07T05:05:53;6.70;99.90
64396;DHT22;50717;53.360;6.290;2023-04-07T05:08:19;7.00;99.90
64396;DHT22;50717;53.360;6.290;2023-04-07T05:10:45;7.30;99.90
64396;DHT22;50717;53.360;6.290;2023-04-07T05:13:11;7.30;99.90
64396;DHT22;50717;53.360;6.290;2023-04-07T05:15:37;7.00;99.90
64396;DHT22;50717;53.360;6.290;2023-04-07T05:18:02;7.00;99.90
64396;DHT22;50717;53.360;6.290;2023-04-07T05:20:28;7.00;99.90
64396;DHT22;50717;53.360;6.290;2023-04-07T05:22:54;7.00;99.90
64396;DHT22;50717;53.360;6.290;2023-04-07T05:25:20;6.70;99.90
64396;DHT22;50717;53.360;6.290;2023-04-07T05:27:45;7.00;99.90
64396;DHT22;50717;53.360;6.290;2023-04-07T05:30:11;6.60;99.90
64396;DHT22;50717;53.360;6.290;2023-04-07T05:32:37;7.40;99.90
64396;DHT22;50717;53.360;6.290;2023-04-07T05:35:03;7.20;99.90
64396;DHT22;50717;53.360;6.290;2023-04-07T05:37:29;7.70;99.90
64396;DHT22;50717;53.360;6.290;2023-04-07T05:39:55;6.80;99.90
64396;DHT22;50717;53.360;6.290;2023-04-07T05:42:21;7.50;99.90
64396;DHT22;50717;53.360;6.290;2023-04-07T05:44:46;7.40;99.90
64396;DHT22;50717;53.360;6.290;2023-04-07T05:47:12;7.60;99.90
64396;DHT22;50717;53.360;6.290;2023-04-07T05:49:37;8.20;99.90
64396;DHT22;50717;53.360;6.290;2023-04-07T05:52:11;7.00;99.90
64396;DHT22;50717;53.360;6.290;2023-04-07T05:54:36;7.40;99.90
64396;DHT22;50717;53.360;6.290;2023-04-07T05:57:04;7.40;99.90
64396;DHT22;50717;53.360;6.290;2023-04-07T05:59:30;8.00;99.90
64396;DHT22;50717;53.360;6.290;2023-04-07T06:01:55;7.30;99.90
64396;DHT22;50717;53.360;6.290;2023-04-07T06:04:21;7.10;99.90
64396;DHT22;50717;53.360;6.290;2023-04-07T06:06:47;7.00;99.90
64396;DHT22;50717;53.360;6.290;2023-04-07T06:09:12;7.50;99.90
64396;DHT22;50717;53.360;6.290;2023-04-07T06:11:38;7.30;99.90
64396;DHT22;50717;53.360;6.290;2023-04-07T06:14:04;7.30;99.90
64396;DHT22;50717;53.360;6.290;2023-04-07T06:16:30;7.60;99.90
64396;DHT22;50717;53.360;6.290;2023-04-07T06:18:55;7.40;99.90
64396;DHT22;50717;53.360;6.290;2023-04-07T06:21:21;8.50;99.90
64396;DHT22;50717;53.360;6.290;2023-04-07T06:23:47;8.00;99.90
64396;DHT22;50717;53.360;6.290;2023-04-07T06:26:12;7.60;99.90
64396;DHT22;50717;53.360;6.290;2023-04-07T06:28:38;7.60;99.90
64396;DHT22;50717;53.360;6.290;2023-04-07T06:31:05;7.10;99.90
64396;DHT22;50717;53.360;6.290;2023-04-07T06:33:31;8.40;99.90
64396;DHT22;50717;53.360;6.290;2023-04-07T06:35:57;7.40;99.90
64396;DHT22;50717;53.360;6.290;2023-04-07T06:38:23;7.30;99.90
64396;DHT22;50717;53.360;6.290;2023-04-07T06:40:49;7.30;99.90
64396;DHT22;50717;53.360;6.290;2023-04-07T06:43:15;7.70;99.90
64396;DHT22;50717;53.360;6.290;2023-04-07T06:45:41;7.30;99.90
64396;DHT22;50717;53.360;6.290;2023-04-07T06:48:06;7.10;99.90
64396;DHT22;50717;53.360;6.290;2023-04-07T06:50:32;7.40;99.90
64396;DHT22;50717;53.360;6.290;2023-04-07T06:52:58;8.00;99.90
64396;DHT22;50717;53.360;6.290;2023-04-07T06:55:23;7.50;99.90
64396;DHT22;50717;53.360;6.290;2023-04-07T06:57:49;7.90;99.90
64396;DHT22;50717;53.360;6.290;2023-04-07T07:00:17;7.70;99.90
64396;DHT22;50717;53.360;6.290;2023-04-07T07:02:43;7.70;99.90
64396;DHT22;50717;53.360;6.290;2023-04-07T07:05:09;7.70;99.90
64396;DHT22;50717;53.360;6.290;2023-04-07T07:07:36;7.60;99.90
64396;DHT22;50717;53.360;6.290;2023-04-07T07:10:02;7.50;99.90
64396;DHT22;50717;53.360;6.290;2023-04-07T07:12:28;7.80;99.90
64396;DHT22;50717;53.360;6.290;2023-04-07T07:14:53;7.60;99.90
64396;DHT22;50717;53.360;6.290;2023-04-07T07:17:19;7.60;99.90
64396;DHT22;50717;53.360;6.290;2023-04-07T07:19:45;7.40;99.90
64396;DHT22;50717;53.360;6.290;2023-04-07T07:22:10;7.80;99.90
64396;DHT22;50717;53.360;6.290;2023-04-07T07:24:36;7.60;99.90
64396;DHT22;50717;53.360;6.290;2023-04-07T07:27:02;7.90;99.90
64396;DHT22;50717;53.360;6.290;2023-04-07T07:29:28;8.10;99.90
64396;DHT22;50717;53.360;6.290;2023-04-07T07:31:53;7.80;99.90
64396;DHT22;50717;53.360;6.290;2023-04-07T07:34:19;8.10;99.90
64396;DHT22;50717;53.360;6.290;2023-04-07T07:36:45;8.30;99.90
64396;DHT22;50717;53.360;6.290;2023-04-07T07:39:11;8.00;99.90
64396;DHT22;50717;53.360;6.290;2023-04-07T07:41:36;8.10;99.90
64396;DHT22;50717;53.360;6.290;2023-04-07T07:44:02;7.90;99.90
64396;DHT22;50717;53.360;6.290;2023-04-07T07:46:28;8.10;99.90
64396;DHT22;50717;53.360;6.290;2023-04-07T07:48:53;7.90;99.90
64396;DHT22;50717;53.360;6.290;2023-04-07T07:51:19;8.20;99.90
64396;DHT22;50717;53.360;6.290;2023-04-07T07:53:45;8.20;99.90
64396;DHT22;50717;53.360;6.290;2023-04-07T07:56:11;7.90;99.90
64396;DHT22;50717;53.360;6.290;2023-04-07T07:58:36;8.40;99.90
64396;DHT22;50717;53.360;6.290;2023-04-07T08:01:02;8.70;99.90
64396;DHT22;50717;53.360;6.290;2023-04-07T08:03:28;8.60;99.90
64396;DHT22;50717;53.360;6.290;2023-04-07T08:05:54;8.60;99.90
64396;DHT22;50717;53.360;6.290;2023-04-07T08:08:19;8.60;99.90
64396;DHT22;50717;53.360;6.290;2023-04-07T08:10:45;8.80;99.90
64396;DHT22;50717;53.360;6.290;2023-04-07T08:13:11;8.60;99.90
64396;DHT22;50717;53.360;6.290;2023-04-07T08:15:37;8.80;99.90
64396;DHT22;50717;53.360;6.290;2023-04-07T08:18:03;8.70;99.90
64396;DHT22;50717;53.360;6.290;2023-04-07T08:20:31;8.90;99.90
64396;DHT22;50717;53.360;6.290;2023-04-07T08:22:57;9.10;99.90
64396;DHT22;50717;53.360;6.290;2023-04-07T08:25:23;9.30;99.90
64396;DHT22;50717;53.360;6.290;2023-04-07T08:27:49;9.10;99.90
64396;DHT22;50717;53.360;6.290;2023-04-07T08:30:14;8.90;99.90
64396;DHT22;50717;53.360;6.290;2023-04-07T08:32:42;9.50;99.90
64396;DHT22;50717;53.360;6.290;2023-04-07T08:35:09;9.30;99.90
64396;DHT22;50717;53.360;6.290;2023-04-07T08:37:36;9.20;99.90
64396;DHT22;50717;53.360;6.290;2023-04-07T08:40:03;8.90;99.90
64396;DHT22;50717;53.360;6.290;2023-04-07T08:42:31;9.20;99.90
64396;DHT22;50717;53.360;6.290;2023-04-07T08:45:01;9.10;99.90
64396;DHT22;50717;53.360;6.290;2023-04-07T08:47:27;9.00;99.90
64396;DHT22;50717;53.360;6.290;2023-04-07T08:49:57;9.20;99.90
64396;DHT22;50717;53.360;6.290;2023-04-07T08:53:12;9.10;99.90
64396;DHT22;50717;53.360;6.290;2023-04-07T08:55:18;9.30;99.90
64396;DHT22;50717;53.360;6.290;2023-04-07T08:57:44;9.50;99.90
64396;DHT22;50717;53.360;6.290;2023-04-07T09:00:11;9.20;99.90
64396;DHT22;50717;53.360;6.290;2023-04-07T09:02:42;9.20;99.90
64396;DHT22;50717;53.360;6.290;2023-04-07T09:05:10;9.30;99.90
64396;DHT22;50717;53.360;6.290;2023-04-07T09:07:38;9.50;99.90
64396;DHT22;50717;53.360;6.290;2023-04-07T09:10:06;9.40;99.90
64396;DHT22;50717;53.360;6.290;2023-04-07T09:12:32;9.80;99.90
64396;DHT22;50717;53.360;6.290;2023-04-07T09:14:58;10.00;99.90
64396;DHT22;50717;53.360;6.290;2023-04-07T09:17:25;10.00;99.90
64396;DHT22;50717;53.360;6.290;2023-04-07T09:19:52;9.90;99.90
64396;DHT22;50717;53.360;6.290;2023-04-07T09:22:39;10.60;99.90
64396;DHT22;50717;53.360;6.290;2023-04-07T09:25:15;10.70;99.90
64396;DHT22;50717;53.360;6.290;2023-04-07T09:27:53;10.80;99.90
64396;DHT22;50717;53.360;6.290;2023-04-07T09:30:19;10.40;99.90
64396;DHT22;50717;53.360;6.290;2023-04-07T09:32:45;10.80;99.90
64396;DHT22;50717;53.360;6.290;2023-04-07T09:35:10;10.90;99.90
64396;DHT22;50717;53.360;6.290;2023-04-07T09:37:36;10.60;99.90
64396;DHT22;50717;53.360;6.290;2023-04-07T09:40:02;10.90;99.90
64396;DHT22;50717;53.360;6.290;2023-04-07T09:42:28;11.10;99.90
64396;DHT22;50717;53.360;6.290;2023-04-07T09:45:00;10.90;99.90
64396;DHT22;50717;53.360;6.290;2023-04-07T09:47:27;10.70;99.90
64396;DHT22;50717;53.360;6.290;2023-04-07T09:49:55;11.10;99.90
64396;DHT22;50717;53.360;6.290;2023-04-07T09:52:48;11.00;99.90
64396;DHT22;50717;53.360;6.290;2023-04-07T09:55:15;11.60;99.90
64396;DHT22;50717;53.360;6.290;2023-04-07T09:57:43;11.40;99.90
64396;DHT22;50717;53.360;6.290;2023-04-07T10:00:09;11.50;99.90
64396;DHT22;50717;53.360;6.290;2023-04-07T10:02:35;11.50;99.90
64396;DHT22;50717;53.360;6.290;2023-04-07T10:05:02;11.80;99.90
64396;DHT22;50717;53.360;6.290;2023-04-07T10:07:28;11.90;99.90
64396;DHT22;50717;53.360;6.290;2023-04-07T10:09:56;11.70;99.90
64396;DHT22;50717;53.360;6.290;2023-04-07T10:12:22;11.60;99.90
64396;DHT22;50717;53.360;6.290;2023-04-07T10:14:49;11.40;99.90
64396;DHT22;50717;53.360;6.290;2023-04-07T10:17:17;12.00;99.90
64396;DHT22;50717;53.360;6.290;2023-04-07T10:19:45;11.90;99.90
64396;DHT22;50717;53.360;6.290;2023-04-07T10:22:13;12.20;99.90
64396;DHT22;50717;53.360;6.290;2023-04-07T10:27:23;12.20;99.90
64396;DHT22;50717;53.360;6.290;2023-04-07T10:29:52;11.80;99.90
64396;DHT22;50717;53.360;6.290;2023-04-07T10:32:18;12.00;99.90
64396;DHT22;50717;53.360;6.290;2023-04-07T10:37:20;12.00;99.90
64396;DHT22;50717;53.360;6.290;2023-04-07T10:39:51;11.70;99.90
64396;DHT22;50717;53.360;6.290;2023-04-07T10:45:01;11.40;99.90
64396;DHT22;50717;53.360;6.290;2023-04-07T10:47:28;11.00;99.90
64396;DHT22;50717;53.360;6.290;2023-04-07T10:52:41;11.20;99.90
64396;DHT22;50717;53.360;6.290;2023-04-07T10:55:35;11.20;99.90
64396;DHT22;50717;53.360;6.290;2023-04-07T10:58:23;11.20;99.90
64396;DHT22;50717;53.360;6.290;2023-04-07T11:03:40;11.00;99.90
64396;DHT22;50717;53.360;6.290;2023-04-07T11:06:08;11.20;99.90
64396;DHT22;50717;53.360;6.290;2023-04-07T11:08:35;11.20;99.90
64396;DHT22;50717;53.360;6.290;2023-04-07T11:11:01;11.50;99.90
64396;DHT22;50717;53.360;6.290;2023-04-07T11:13:27;11.70;99.90
64396;DHT22;50717;53.360;6.290;2023-04-07T11:15:53;11.70;99.90
64396;DHT22;50717;53.360;6.290;2023-04-07T11:18:20;11.60;99.90
64396;DHT22;50717;53.360;6.290;2023-04-07T11:20:49;11.50;99.90
64396;DHT22;50717;53.360;6.290;2023-04-07T11:23:16;11.90;99.90
64396;DHT22;50717;53.360;6.290;2023-04-07T11:25:44;11.50;99.90
64396;DHT22;50717;53.360;6.290;2023-04-07T11:28:12;11.80;99.90
64396;DHT22;50717;53.360;6.290;2023-04-07T11:30:38;11.70;99.90
64396;DHT22;50717;53.360;6.290;2023-04-07T11:33:09;11.40;99.90
64396;DHT22;50717;53.360;6.290;2023-04-07T11:35:56;11.50;99.90
64396;DHT22;50717;53.360;6.290;2023-04-07T11:38:25;12.10;99.90
64396;DHT22;50717;53.360;6.290;2023-04-07T11:40:53;12.10;99.90
64396;DHT22;50717;53.360;6.290;2023-04-07T11:43:26;12.50;99.90
64396;DHT22;50717;53.360;6.290;2023-04-07T11:46:09;12.50;99.90
64396;DHT22;50717;53.360;6.290;2023-04-07T11:48:37;12.90;99.90
64396;DHT22;50717;53.360;6.290;2023-04-07T11:51:04;12.50;99.90
64396;DHT22;50717;53.360;6.290;2023-04-07T11:53:31;12.70;99.90
64396;DHT22;50717;53.360;6.290;2023-04-07T11:56:03;12.70;99.90
64396;DHT22;50717;53.360;6.290;2023-04-07T11:58:30;12.80;99.90
64396;DHT22;50717;53.360;6.290;2023-04-07T12:01:01;13.10;99.90
64396;DHT22;50717;53.360;6.290;2023-04-07T12:03:32;13.30;99.90
64396;DHT22;50717;53.360;6.290;2023-04-07T12:06:00;13.30;99.90
64396;DHT22;50717;53.360;6.290;2023-04-07T12:08:42;13.10;99.90
64396;DHT22;50717;53.360;6.290;2023-04-07T12:11:09;13.30;99.90
64396;DHT22;50717;53.360;6.290;2023-04-07T12:13:36;13.50;99.90
64396;DHT22;50717;53.360;6.290;2023-04-07T12:16:02;13.20;99.90
64396;DHT22;50717;53.360;6.290;2023-04-07T12:18:28;13.20;99.90
64396;DHT22;50717;53.360;6.290;2023-04-07T12:20:55;13.50;99.90
64396;DHT22;50717;53.360;6.290;2023-04-07T12:23:21;13.00;99.90
64396;DHT22;50717;53.360;6.290;2023-04-07T12:25:47;13.30;99.90
64396;DHT22;50717;53.360;6.290;2023-04-07T12:28:12;13.20;99.90
64396;DHT22;50717;53.360;6.290;2023-04-07T12:30:38;13.50;99.90
64396;DHT22;50717;53.360;6.290;2023-04-07T12:33:04;13.60;99.90
64396;DHT22;50717;53.360;6.290;2023-04-07T12:35:30;14.00;99.90
64396;DHT22;50717;53.360;6.290;2023-04-07T12:37:56;14.10;99.90
64396;DHT22;50717;53.360;6.290;2023-04-07T12:40:23;14.20;99.90
64396;DHT22;50717;53.360;6.290;2023-04-07T12:42:48;14.90;99.90
64396;DHT22;50717;53.360;6.290;2023-04-07T12:45:14;14.60;99.90
64396;DHT22;50717;53.360;6.290;2023-04-07T12:47:40;14.60;99.90
64396;DHT22;50717;53.360;6.290;2023-04-07T12:50:05;15.10;99.90
64396;DHT22;50717;53.360;6.290;2023-04-07T12:52:31;14.80;99.90
64396;DHT22;50717;53.360;6.290;2023-04-07T12:54:57;14.40;99.90
64396;DHT22;50717;53.360;6.290;2023-04-07T12:57:24;15.00;99.90
64396;DHT22;50717;53.360;6.290;2023-04-07T12:59:49;15.20;99.90
64396;DHT22;50717;53.360;6.290;2023-04-07T13:02:16;16.20;99.90
64396;DHT22;50717;53.360;6.290;2023-04-07T13:04:43;14.80;99.90
64396;DHT22;50717;53.360;6.290;2023-04-07T13:07:11;15.10;99.90
64396;DHT22;50717;53.360;6.290;2023-04-07T13:09:38;15.00;99.90
64396;DHT22;50717;53.360;6.290;2023-04-07T13:12:03;15.40;99.90
64396;DHT22;50717;53.360;6.290;2023-04-07T13:14:29;15.40;99.90
64396;DHT22;50717;53.360;6.290;2023-04-07T13:16:55;15.60;99.90
64396;DHT22;50717;53.360;6.290;2023-04-07T13:19:20;15.30;99.90
64396;DHT22;50717;53.360;6.290;2023-04-07T13:21:46;15.40;99.90
64396;DHT22;50717;53.360;6.290;2023-04-07T13:24:12;15.30;99.90
64396;DHT22;50717;53.360;6.290;2023-04-07T13:26:37;14.50;99.90
64396;DHT22;50717;53.360;6.290;2023-04-07T13:29:03;14.90;99.90
64396;DHT22;50717;53.360;6.290;2023-04-07T13:31:29;14.40;99.90
64396;DHT22;50717;53.360;6.290;2023-04-07T13:33:55;14.40;99.90
64396;DHT22;50717;53.360;6.290;2023-04-07T13:36:21;14.40;99.90
64396;DHT22;50717;53.360;6.290;2023-04-07T13:38:47;14.30;99.90
64396;DHT22;50717;53.360;6.290;2023-04-07T13:41:12;14.70;99.90
64396;DHT22;50717;53.360;6.290;2023-04-07T13:43:38;15.00;99.90
64396;DHT22;50717;53.360;6.290;2023-04-07T13:46:03;15.60;99.90
64396;DHT22;50717;53.360;6.290;2023-04-07T13:48:29;15.40;99.90
64396;DHT22;50717;53.360;6.290;2023-04-07T13:50:55;15.60;99.90
64396;DHT22;50717;53.360;6.290;2023-04-07T13:53:21;15.60;99.90
64396;DHT22;50717;53.360;6.290;2023-04-07T13:55:47;15.70;99.90
64396;DHT22;50717;53.360;6.290;2023-04-07T13:58:13;15.90;99.90
64396;DHT22;50717;53.360;6.290;2023-04-07T14:00:39;15.70;99.90
64396;DHT22;50717;53.360;6.290;2023-04-07T14:03:05;15.80;99.90
64396;DHT22;50717;53.360;6.290;2023-04-07T14:05:30;15.50;99.90
64396;DHT22;50717;53.360;6.290;2023-04-07T14:07:56;15.50;99.90
64396;DHT22;50717;53.360;6.290;2023-04-07T14:10:22;15.20;99.90
64396;DHT22;50717;53.360;6.290;2023-04-07T14:12:47;14.70;99.90
64396;DHT22;50717;53.360;6.290;2023-04-07T14:15:13;14.70;99.90
64396;DHT22;50717;53.360;6.290;2023-04-07T14:17:39;14.10;99.90
64396;DHT22;50717;53.360;6.290;2023-04-07T14:20:05;14.30;99.90
64396;DHT22;50717;53.360;6.290;2023-04-07T14:22:31;14.30;99.90
64396;DHT22;50717;53.360;6.290;2023-04-07T14:24:57;14.70;99.90
64396;DHT22;50717;53.360;6.290;2023-04-07T14:27:22;14.40;99.90
64396;DHT22;50717;53.360;6.290;2023-04-07T14:29:48;14.40;99.90
64396;DHT22;50717;53.360;6.290;2023-04-07T14:32:15;14.40;99.90
64396;DHT22;50717;53.360;6.290;2023-04-07T14:34:41;14.10;99.90
64396;DHT22;50717;53.360;6.290;2023-04-07T14:37:06;14.40;99.90
64396;DHT22;50717;53.360;6.290;2023-04-07T14:39:32;14.40;99.90
64396;DHT22;50717;53.360;6.290;2023-04-07T14:41:58;14.30;99.90
64396;DHT22;50717;53.360;6.290;2023-04-07T14:44:25;14.40;99.90
64396;DHT22;50717;53.360;6.290;2023-04-07T14:46:51;14.50;99.90
64396;DHT22;50717;53.360;6.290;2023-04-07T14:49:17;14.50;99.90
64396;DHT22;50717;53.360;6.290;2023-04-07T14:51:43;14.60;99.90
64396;DHT22;50717;53.360;6.290;2023-04-07T14:54:09;14.60;99.90
64396;DHT22;50717;53.360;6.290;2023-04-07T14:56:35;14.40;99.90
64396;DHT22;50717;53.360;6.290;2023-04-07T14:59:01;14.40;99.90
64396;DHT22;50717;53.360;6.290;2023-04-07T15:01:27;14.30;99.90
64396;DHT22;50717;53.360;6.290;2023-04-07T15:03:53;14.40;99.90
64396;DHT22;50717;53.360;6.290;2023-04-07T15:06:18;14.90;99.90
64396;DHT22;50717;53.360;6.290;2023-04-07T15:08:44;15.50;99.90
64396;DHT22;50717;53.360;6.290;2023-04-07T15:11:09;15.40;99.90
64396;DHT22;50717;53.360;6.290;2023-04-07T15:13:35;15.70;99.90
64396;DHT22;50717;53.360;6.290;2023-04-07T15:16:08;16.10;99.90
64396;DHT22;50717;53.360;6.290;2023-04-07T15:18:34;16.00;99.90
64396;DHT22;50717;53.360;6.290;2023-04-07T15:21:00;16.90;99.90
64396;DHT22;50717;53.360;6.290;2023-04-07T15:23:25;17.20;99.90
64396;DHT22;50717;53.360;6.290;2023-04-07T15:25:51;17.10;99.90
64396;DHT22;50717;53.360;6.290;2023-04-07T15:28:21;17.20;99.90
64396;DHT22;50717;53.360;6.290;2023-04-07T15:30:46;16.60;99.90
64396;DHT22;50717;53.360;6.290;2023-04-07T15:33:12;16.50;99.90
64396;DHT22;50717;53.360;6.290;2023-04-07T15:35:41;16.50;99.90
64396;DHT22;50717;53.360;6.290;2023-04-07T15:38:06;15.90;99.90
64396;DHT22;50717;53.360;6.290;2023-04-07T15:40:36;16.10;99.90
64396;DHT22;50717;53.360;6.290;2023-04-07T15:43:02;15.80;99.90
64396;DHT22;50717;53.360;6.290;2023-04-07T15:45:29;15.60;99.90
64396;DHT22;50717;53.360;6.290;2023-04-07T15:47:54;15.40;99.90
64396;DHT22;50717;53.360;6.290;2023-04-07T15:50:20;15.30;99.90
64396;DHT22;50717;53.360;6.290;2023-04-07T15:52:46;15.30;99.90
64396;DHT22;50717;53.360;6.290;2023-04-07T15:55:12;14.80;99.90
64396;DHT22;50717;53.360;6.290;2023-04-07T15:57:37;15.00;99.90